sensor_id;sensor_type;location;lat;lon;timestamp;pressure;altitude;pressure_sealevel;temperature;humidity
41230;BME280;26964;50.428;19.218;2023-04-09T00:00:29;1025.7;;;4.8;77.1
41230;BME280;26964;50.428;19.218;2023-04-09T00:01:29;1025.7;;;4.8;77.1
41230;BME280;26964;50.428;19.218;2023-04-09T00:02:29;1025.8;;;4.8;77.1
41230;BME280;26964;50.428;19.218;2023-04-09T00:03:29;1025.7;;;4.8;77.1
41230;BME280;26964;50.428;19.218;2023-04-09T00:04:29;1025.7;;;4.8;77.1
41230;BME280;26964;50.428;19.218;2023-04-09T00:05:29;1025.6;;;4.8;77.1
41230;BME280;26964;50.428;19.218;2023-04-09T00:06:44;1025.6;;;4.8;77.1
41230;BME280;26964;50.428;19.218;2023-04-09T00:07:28;1025.6;;;4.8;77.1
41230;BME280;26964;50.428;19.218;2023-04-09T00:08:29;1025.6;;;4.8;77.1
41230;BME280;26964;50.428;19.218;2023-04-09T00:09:29;1025.5;;;4.7;77.1
41230;BME280;26964;50.428;19.218;2023-04-09T00:10:28;1025.6;;;4.7;77.1
41230;BME280;26964;50.428;19.218;2023-04-09T00:11:29;1025.6;;;4.7;77.1
41230;BME280;26964;50.428;19.218;2023-04-09T00:12:28;1025.5;;;4.7;77.1
41230;BME280;26964;50.428;19.218;2023-04-09T00:13:29;1025.6;;;4.7;77.1
41230;BME280;26964;50.428;19.218;2023-04-09T00:14:29;1025.6;;;4.7;77.2
41230;BME280;26964;50.428;19.218;2023-04-09T00:15:43;1025.5;;;4.7;77.2
41230;BME280;26964;50.428;19.218;2023-04-09T00:16:29;1025.5;;;4.7;77.2
41230;BME280;26964;50.428;19.218;2023-04-09T00:17:29;1025.5;;;4.7;77.2
41230;BME280;26964;50.428;19.218;2023-04-09T00:18:29;1025.5;;;4.7;77.2
41230;BME280;26964;50.428;19.218;2023-04-09T00:19:29;1025.5;;;4.7;77.2
41230;BME280;26964;50.428;19.218;2023-04-09T00:20:29;1025.5;;;4.7;77.2
41230;BME280;26964;50.428;19.218;2023-04-09T00:21:28;1025.6;;;4.7;77.2
41230;BME280;26964;50.428;19.218;2023-04-09T00:22:29;1025.7;;;4.7;77.2
41230;BME280;26964;50.428;19.218;2023-04-09T00:23:29;1025.6;;;4.7;77.2
41230;BME280;26964;50.428;19.218;2023-04-09T00:24:28;1025.7;;;4.7;77.2
41230;BME280;26964;50.428;19.218;2023-04-09T00:25:29;1025.7;;;4.7;77.2
41230;BME280;26964;50.428;19.218;2023-04-09T00:26:29;1025.7;;;4.7;77.2
41230;BME280;26964;50.428;19.218;2023-04-09T00:27:29;1025.7;;;4.7;77.2
41230;BME280;26964;50.428;19.218;2023-04-09T00:28:29;1025.7;;;4.7;77.2
41230;BME280;26964;50.428;19.218;2023-04-09T00:29:29;1025.8;;;4.7;77.2
41230;BME280;26964;50.428;19.218;2023-04-09T00:30:29;1025.7;;;4.7;77.2
41230;BME280;26964;50.428;19.218;2023-04-09T00:31:29;1025.8;;;4.7;77.2
41230;BME280;26964;50.428;19.218;2023-04-09T00:32:29;1025.8;;;4.7;77.2
41230;BME280;26964;50.428;19.218;2023-04-09T00:33:29;1025.7;;;4.7;77.2
41230;BME280;26964;50.428;19.218;2023-04-09T00:34:29;1025.8;;;4.7;77.2
41230;BME280;26964;50.428;19.218;2023-04-09T00:35:28;1025.8;;;4.7;77.2
41230;BME280;26964;50.428;19.218;2023-04-09T00:36:28;1025.9;;;4.7;77.3
41230;BME280;26964;50.428;19.218;2023-04-09T00:37:29;1025.9;;;4.7;77.3
41230;BME280;26964;50.428;19.218;2023-04-09T00:38:29;1025.9;;;4.6;77.3
41230;BME280;26964;50.428;19.218;2023-04-09T00:39:29;1025.9;;;4.6;77.3
41230;BME280;26964;50.428;19.218;2023-04-09T00:40:28;1025.9;;;4.6;77.3
41230;BME280;26964;50.428;19.218;2023-04-09T00:41:29;1025.9;;;4.6;77.4
41230;BME280;26964;50.428;19.218;2023-04-09T00:42:32;1025.8;;;4.6;77.4
41230;BME280;26964;50.428;19.218;2023-04-09T00:43:28;1025.9;;;4.6;77.4
41230;BME280;26964;50.428;19.218;2023-04-09T00:44:29;1025.8;;;4.6;77.4
41230;BME280;26964;50.428;19.218;2023-04-09T00:45:28;1025.9;;;4.6;77.4
41230;BME280;26964;50.428;19.218;2023-04-09T00:46:28;1025.8;;;4.7;77.4
41230;BME280;26964;50.428;19.218;2023-04-09T00:47:28;1025.8;;;4.6;77.4
41230;BME280;26964;50.428;19.218;2023-04-09T00:48:28;1025.9;;;4.7;77.4
41230;BME280;26964;50.428;19.218;2023-04-09T00:49:28;1025.8;;;4.7;77.4
41230;BME280;26964;50.428;19.218;2023-04-09T00:50:28;1025.8;;;4.7;77.4
41230;BME280;26964;50.428;19.218;2023-04-09T00:51:29;1025.7;;;4.7;77.4
41230;BME280;26964;50.428;19.218;2023-04-09T00:52:28;1025.8;;;4.6;77.4
41230;BME280;26964;50.428;19.218;2023-04-09T00:53:29;1025.8;;;4.7;77.4
41230;BME280;26964;50.428;19.218;2023-04-09T00:54:28;1025.8;;;4.7;77.4
41230;BME280;26964;50.428;19.218;2023-04-09T00:55:29;1025.8;;;4.7;77.4
41230;BME280;26964;50.428;19.218;2023-04-09T00:56:28;1025.8;;;4.7;77.4
41230;BME280;26964;50.428;19.218;2023-04-09T00:57:28;1025.9;;;4.7;77.4
41230;BME280;26964;50.428;19.218;2023-04-09T00:58:28;1025.8;;;4.7;77.4
41230;BME280;26964;50.428;19.218;2023-04-09T00:59:28;1025.7;;;4.7;77.4
41230;BME280;26964;50.428;19.218;2023-04-09T01:00:29;1025.8;;;4.7;77.4
41230;BME280;26964;50.428;19.218;2023-04-09T01:01:28;1025.7;;;4.7;77.4
41230;BME280;26964;50.428;19.218;2023-04-09T01:02:28;1025.7;;;4.7;77.4
41230;BME280;26964;50.428;19.218;2023-04-09T01:03:28;1025.7;;;4.7;77.4
41230;BME280;26964;50.428;19.218;2023-04-09T01:04:29;1025.8;;;4.7;77.4
41230;BME280;26964;50.428;19.218;2023-04-09T01:05:33;1025.8;;;4.7;77.4
41230;BME280;26964;50.428;19.218;2023-04-09T01:06:33;1025.7;;;4.7;77.4
41230;BME280;26964;50.428;19.218;2023-04-09T01:08:34;1025.7;;;4.7;77.4
41230;BME280;26964;50.428;19.218;2023-04-09T01:09:32;1025.6;;;4.7;77.4
41230;BME280;26964;50.428;19.218;2023-04-09T01:10:33;1025.6;;;4.7;77.4
41230;BME280;26964;50.428;19.218;2023-04-09T01:11:34;1025.7;;;4.6;77.4
41230;BME280;26964;50.428;19.218;2023-04-09T01:12:32;1025.6;;;4.6;77.4
41230;BME280;26964;50.428;19.218;2023-04-09T01:13:33;1025.8;;;4.6;77.4
41230;BME280;26964;50.428;19.218;2023-04-09T01:14:34;1025.7;;;4.6;77.4
41230;BME280;26964;50.428;19.218;2023-04-09T01:15:30;1025.7;;;4.6;77.5
41230;BME280;26964;50.428;19.218;2023-04-09T01:16:28;1025.7;;;4.6;77.5
41230;BME280;26964;50.428;19.218;2023-04-09T01:17:32;1025.8;;;4.6;77.5
41230;BME280;26964;50.428;19.218;2023-04-09T01:18:30;1025.7;;;4.6;77.5
41230;BME280;26964;50.428;19.218;2023-04-09T01:19:34;1025.8;;;4.6;77.4
41230;BME280;26964;50.428;19.218;2023-04-09T01:20:33;1025.7;;;4.6;77.5
41230;BME280;26964;50.428;19.218;2023-04-09T01:21:29;1025.8;;;4.6;77.5
41230;BME280;26964;50.428;19.218;2023-04-09T01:22:39;1025.8;;;4.6;77.5
41230;BME280;26964;50.428;19.218;2023-04-09T01:23:36;1025.8;;;4.6;77.5
41230;BME280;26964;50.428;19.218;2023-04-09T01:24:35;1025.8;;;4.6;77.5
41230;BME280;26964;50.428;19.218;2023-04-09T01:27:34;1025.8;;;4.6;77.5
41230;BME280;26964;50.428;19.218;2023-04-09T01:28:32;1025.9;;;4.6;77.5
41230;BME280;26964;50.428;19.218;2023-04-09T01:29:32;1025.8;;;4.6;77.5
41230;BME280;26964;50.428;19.218;2023-04-09T01:30:28;1025.8;;;4.6;77.6
41230;BME280;26964;50.428;19.218;2023-04-09T01:31:30;1025.8;;;4.6;77.5
41230;BME280;26964;50.428;19.218;2023-04-09T01:32:28;1025.9;;;4.6;77.5
41230;BME280;26964;50.428;19.218;2023-04-09T01:33:28;1025.9;;;4.6;77.6
41230;BME280;26964;50.428;19.218;2023-04-09T01:34:29;1025.9;;;4.6;77.5
41230;BME280;26964;50.428;19.218;2023-04-09T01:35:28;1025.8;;;4.6;77.6
41230;BME280;26964;50.428;19.218;2023-04-09T01:36:29;1025.9;;;4.6;77.6
41230;BME280;26964;50.428;19.218;2023-04-09T01:37:28;1025.9;;;4.6;77.6
41230;BME280;26964;50.428;19.218;2023-04-09T01:38:29;1025.8;;;4.6;77.6
41230;BME280;26964;50.428;19.218;2023-04-09T01:39:28;1025.8;;;4.6;77.6
41230;BME280;26964;50.428;19.218;2023-04-09T01:40:28;1025.9;;;4.6;77.6
41230;BME280;26964;50.428;19.218;2023-04-09T01:41:30;1025.8;;;4.6;77.6
41230;BME280;26964;50.428;19.218;2023-04-09T01:42:28;1025.8;;;4.6;77.6
41230;BME280;26964;50.428;19.218;2023-04-09T01:43:29;1025.8;;;4.6;77.6
41230;BME280;26964;50.428;19.218;2023-04-09T01:44:28;1025.9;;;4.6;77.6
41230;BME280;26964;50.428;19.218;2023-04-09T01:45:29;1025.8;;;4.6;77.6
41230;BME280;26964;50.428;19.218;2023-04-09T01:46:28;1025.8;;;4.6;77.6
41230;BME280;26964;50.428;19.218;2023-04-09T01:47:29;1025.7;;;4.6;77.6
41230;BME280;26964;50.428;19.218;2023-04-09T01:48:28;1025.8;;;4.6;77.6
41230;BME280;26964;50.428;19.218;2023-04-09T01:49:28;1025.8;;;4.6;77.6
41230;BME280;26964;50.428;19.218;2023-04-09T01:50:28;1025.8;;;4.6;77.6
41230;BME280;26964;50.428;19.218;2023-04-09T01:51:28;1025.7;;;4.6;77.6
41230;BME280;26964;50.428;19.218;2023-04-09T01:52:28;1025.8;;;4.6;77.6
41230;BME280;26964;50.428;19.218;2023-04-09T01:53:28;1025.8;;;4.6;77.6
41230;BME280;26964;50.428;19.218;2023-04-09T01:54:29;1025.8;;;4.6;77.6
41230;BME280;26964;50.428;19.218;2023-04-09T01:55:29;1025.8;;;4.6;77.6
41230;BME280;26964;50.428;19.218;2023-04-09T01:57:29;1025.7;;;4.6;77.6
41230;BME280;26964;50.428;19.218;2023-04-09T01:58:29;1025.8;;;4.6;77.6
41230;BME280;26964;50.428;19.218;2023-04-09T01:59:29;1025.7;;;4.6;77.6
41230;BME280;26964;50.428;19.218;2023-04-09T02:00:33;1025.8;;;4.6;77.6
41230;BME280;26964;50.428;19.218;2023-04-09T02:01:32;1025.8;;;4.6;77.7
41230;BME280;26964;50.428;19.218;2023-04-09T02:02:33;1025.7;;;4.6;77.7
41230;BME280;26964;50.428;19.218;2023-04-09T02:03:32;1025.7;;;4.6;77.7
41230;BME280;26964;50.428;19.218;2023-04-09T02:04:33;1025.7;;;4.6;77.7
41230;BME280;26964;50.428;19.218;2023-04-09T02:05:33;1025.7;;;4.6;77.7
41230;BME280;26964;50.428;19.218;2023-04-09T02:06:33;1025.7;;;4.5;77.7
41230;BME280;26964;50.428;19.218;2023-04-09T02:07:34;1025.8;;;4.5;77.7
41230;BME280;26964;50.428;19.218;2023-04-09T02:08:28;1025.8;;;4.5;77.7
41230;BME280;26964;50.428;19.218;2023-04-09T02:09:29;1025.9;;;4.5;77.7
41230;BME280;26964;50.428;19.218;2023-04-09T02:10:31;1025.9;;;4.5;77.7
41230;BME280;26964;50.428;19.218;2023-04-09T02:11:28;1026.0;;;4.5;77.7
41230;BME280;26964;50.428;19.218;2023-04-09T02:12:32;1025.9;;;4.5;77.7
41230;BME280;26964;50.428;19.218;2023-04-09T02:13:28;1025.8;;;4.5;77.7
41230;BME280;26964;50.428;19.218;2023-04-09T02:14:30;1025.8;;;4.5;77.7
41230;BME280;26964;50.428;19.218;2023-04-09T02:15:31;1025.9;;;4.5;77.8
41230;BME280;26964;50.428;19.218;2023-04-09T02:16:28;1026.0;;;4.5;77.8
41230;BME280;26964;50.428;19.218;2023-04-09T02:17:29;1025.8;;;4.5;77.8
41230;BME280;26964;50.428;19.218;2023-04-09T02:18:29;1025.8;;;4.5;77.8
41230;BME280;26964;50.428;19.218;2023-04-09T02:20:29;1025.8;;;4.5;77.8
41230;BME280;26964;50.428;19.218;2023-04-09T02:21:28;1025.8;;;4.5;77.8
41230;BME280;26964;50.428;19.218;2023-04-09T02:22:29;1025.8;;;4.5;77.8
41230;BME280;26964;50.428;19.218;2023-04-09T02:23:29;1025.9;;;4.5;77.8
41230;BME280;26964;50.428;19.218;2023-04-09T02:24:29;1025.8;;;4.5;77.8
41230;BME280;26964;50.428;19.218;2023-04-09T02:25:28;1025.8;;;4.6;77.8
41230;BME280;26964;50.428;19.218;2023-04-09T02:26:28;1025.8;;;4.6;77.8
41230;BME280;26964;50.428;19.218;2023-04-09T02:27:28;1025.9;;;4.6;77.8
41230;BME280;26964;50.428;19.218;2023-04-09T02:28:29;1025.8;;;4.6;77.8
41230;BME280;26964;50.428;19.218;2023-04-09T02:29:28;1025.7;;;4.6;77.8
41230;BME280;26964;50.428;19.218;2023-04-09T02:30:29;1025.7;;;4.6;77.8
41230;BME280;26964;50.428;19.218;2023-04-09T02:31:28;1025.9;;;4.6;77.8
41230;BME280;26964;50.428;19.218;2023-04-09T02:32:29;1025.8;;;4.6;77.8
41230;BME280;26964;50.428;19.218;2023-04-09T02:33:29;1025.7;;;4.6;77.8
41230;BME280;26964;50.428;19.218;2023-04-09T02:34:28;1025.7;;;4.6;77.8
41230;BME280;26964;50.428;19.218;2023-04-09T02:35:29;1025.9;;;4.6;77.8
41230;BME280;26964;50.428;19.218;2023-04-09T02:36:28;1025.8;;;4.6;77.8
41230;BME280;26964;50.428;19.218;2023-04-09T02:37:28;1025.9;;;4.6;77.9
41230;BME280;26964;50.428;19.218;2023-04-09T02:38:29;1025.8;;;4.6;77.8
41230;BME280;26964;50.428;19.218;2023-04-09T02:39:29;1025.8;;;4.6;77.8
41230;BME280;26964;50.428;19.218;2023-04-09T02:40:28;1025.8;;;4.6;77.8
41230;BME280;26964;50.428;19.218;2023-04-09T02:41:28;1025.8;;;4.6;77.8
41230;BME280;26964;50.428;19.218;2023-04-09T02:42:29;1025.8;;;4.6;77.9
41230;BME280;26964;50.428;19.218;2023-04-09T02:43:29;1025.9;;;4.6;77.8
41230;BME280;26964;50.428;19.218;2023-04-09T02:44:29;1025.8;;;4.6;77.9
41230;BME280;26964;50.428;19.218;2023-04-09T02:45:28;1025.8;;;4.6;77.9
41230;BME280;26964;50.428;19.218;2023-04-09T02:46:29;1025.8;;;4.6;77.9
41230;BME280;26964;50.428;19.218;2023-04-09T02:47:28;1025.8;;;4.6;77.9
41230;BME280;26964;50.428;19.218;2023-04-09T02:48:28;1025.7;;;4.6;77.9
41230;BME280;26964;50.428;19.218;2023-04-09T02:49:28;1025.7;;;4.5;77.8
41230;BME280;26964;50.428;19.218;2023-04-09T02:50:28;1025.8;;;4.5;77.8
41230;BME280;26964;50.428;19.218;2023-04-09T02:51:29;1025.9;;;4.5;77.8
41230;BME280;26964;50.428;19.218;2023-04-09T02:52:29;1025.8;;;4.5;77.8
41230;BME280;26964;50.428;19.218;2023-04-09T02:53:29;1025.8;;;4.5;77.8
41230;BME280;26964;50.428;19.218;2023-04-09T02:54:29;1025.9;;;4.5;77.8
41230;BME280;26964;50.428;19.218;2023-04-09T02:55:29;1025.8;;;4.5;77.8
41230;BME280;26964;50.428;19.218;2023-04-09T02:56:29;1025.8;;;4.5;77.8
41230;BME280;26964;50.428;19.218;2023-04-09T02:57:29;1025.9;;;4.4;77.8
41230;BME280;26964;50.428;19.218;2023-04-09T02:58:29;1025.8;;;4.4;77.8
41230;BME280;26964;50.428;19.218;2023-04-09T02:59:28;1025.7;;;4.4;77.8
41230;BME280;26964;50.428;19.218;2023-04-09T03:00:29;1025.8;;;4.4;77.8
41230;BME280;26964;50.428;19.218;2023-04-09T03:01:28;1025.8;;;4.4;77.8
41230;BME280;26964;50.428;19.218;2023-04-09T03:02:28;1025.8;;;4.4;77.8
41230;BME280;26964;50.428;19.218;2023-04-09T03:03:29;1025.8;;;4.3;77.9
41230;BME280;26964;50.428;19.218;2023-04-09T03:04:29;1025.8;;;4.3;77.9
41230;BME280;26964;50.428;19.218;2023-04-09T03:05:29;1025.7;;;4.3;77.9
41230;BME280;26964;50.428;19.218;2023-04-09T03:06:28;1025.8;;;4.3;77.9
41230;BME280;26964;50.428;19.218;2023-04-09T03:07:29;1025.8;;;4.3;77.9
41230;BME280;26964;50.428;19.218;2023-04-09T03:08:28;1025.8;;;4.3;77.9
41230;BME280;26964;50.428;19.218;2023-04-09T03:09:29;1025.7;;;4.3;77.9
41230;BME280;26964;50.428;19.218;2023-04-09T03:10:28;1025.7;;;4.3;78.0
41230;BME280;26964;50.428;19.218;2023-04-09T03:11:28;1025.7;;;4.3;78.0
41230;BME280;26964;50.428;19.218;2023-04-09T03:12:28;1025.7;;;4.3;78.0
41230;BME280;26964;50.428;19.218;2023-04-09T03:13:29;1025.7;;;4.3;78.0
41230;BME280;26964;50.428;19.218;2023-04-09T03:14:29;1025.7;;;4.3;78.0
41230;BME280;26964;50.428;19.218;2023-04-09T03:15:28;1025.6;;;4.3;78.0
41230;BME280;26964;50.428;19.218;2023-04-09T03:16:28;1025.7;;;4.3;78.0
41230;BME280;26964;50.428;19.218;2023-04-09T03:17:29;1025.7;;;4.3;78.0
41230;BME280;26964;50.428;19.218;2023-04-09T03:18:29;1025.6;;;4.3;78.0
41230;BME280;26964;50.428;19.218;2023-04-09T03:19:29;1025.7;;;4.3;78.1
41230;BME280;26964;50.428;19.218;2023-04-09T03:20:29;1025.6;;;4.3;78.1
41230;BME280;26964;50.428;19.218;2023-04-09T03:21:28;1025.7;;;4.3;78.0
41230;BME280;26964;50.428;19.218;2023-04-09T03:22:28;1025.7;;;4.3;78.0
41230;BME280;26964;50.428;19.218;2023-04-09T03:23:28;1025.6;;;4.3;78.0
41230;BME280;26964;50.428;19.218;2023-04-09T03:24:30;1025.6;;;4.2;78.0
41230;BME280;26964;50.428;19.218;2023-04-09T03:25:28;1025.6;;;4.3;78.1
41230;BME280;26964;50.428;19.218;2023-04-09T03:26:28;1025.6;;;4.2;78.1
41230;BME280;26964;50.428;19.218;2023-04-09T03:27:28;1025.6;;;4.3;78.1
41230;BME280;26964;50.428;19.218;2023-04-09T03:28:28;1025.6;;;4.2;78.1
41230;BME280;26964;50.428;19.218;2023-04-09T03:29:28;1025.5;;;4.2;78.1
41230;BME280;26964;50.428;19.218;2023-04-09T03:30:28;1025.6;;;4.2;78.1
41230;BME280;26964;50.428;19.218;2023-04-09T03:31:28;1025.6;;;4.2;78.1
41230;BME280;26964;50.428;19.218;2023-04-09T03:32:28;1025.5;;;4.2;78.1
41230;BME280;26964;50.428;19.218;2023-04-09T03:33:28;1025.6;;;4.2;78.1
41230;BME280;26964;50.428;19.218;2023-04-09T03:34:28;1025.6;;;4.2;78.1
41230;BME280;26964;50.428;19.218;2023-04-09T03:35:28;1025.7;;;4.2;78.1
41230;BME280;26964;50.428;19.218;2023-04-09T03:36:28;1025.7;;;4.2;78.1
41230;BME280;26964;50.428;19.218;2023-04-09T03:37:28;1025.8;;;4.2;78.1
41230;BME280;26964;50.428;19.218;2023-04-09T03:38:28;1025.7;;;4.2;78.1
41230;BME280;26964;50.428;19.218;2023-04-09T03:39:28;1025.7;;;4.2;78.1
41230;BME280;26964;50.428;19.218;2023-04-09T03:40:28;1025.7;;;4.2;78.1
41230;BME280;26964;50.428;19.218;2023-04-09T03:41:28;1025.7;;;4.2;78.1
41230;BME280;26964;50.428;19.218;2023-04-09T03:42:28;1025.7;;;4.2;78.1
41230;BME280;26964;50.428;19.218;2023-04-09T03:43:28;1025.8;;;4.2;78.1
41230;BME280;26964;50.428;19.218;2023-04-09T03:44:28;1025.7;;;4.2;78.0
41230;BME280;26964;50.428;19.218;2023-04-09T03:45:28;1025.7;;;4.2;78.1
41230;BME280;26964;50.428;19.218;2023-04-09T03:46:29;1025.8;;;4.2;78.0
41230;BME280;26964;50.428;19.218;2023-04-09T03:47:28;1025.8;;;4.2;78.0
41230;BME280;26964;50.428;19.218;2023-04-09T03:48:28;1025.9;;;4.2;78.1
41230;BME280;26964;50.428;19.218;2023-04-09T03:49:28;1025.9;;;4.2;78.0
41230;BME280;26964;50.428;19.218;2023-04-09T03:50:28;1025.9;;;4.2;78.0
41230;BME280;26964;50.428;19.218;2023-04-09T03:51:28;1025.8;;;4.2;78.0
41230;BME280;26964;50.428;19.218;2023-04-09T03:52:28;1025.8;;;4.2;78.0
41230;BME280;26964;50.428;19.218;2023-04-09T03:53:28;1025.8;;;4.2;78.0
41230;BME280;26964;50.428;19.218;2023-04-09T03:54:28;1025.8;;;4.2;78.0
41230;BME280;26964;50.428;19.218;2023-04-09T03:55:28;1025.9;;;4.2;78.0
41230;BME280;26964;50.428;19.218;2023-04-09T03:56:28;1025.8;;;4.1;78.1
41230;BME280;26964;50.428;19.218;2023-04-09T03:57:28;1025.7;;;4.1;78.1
41230;BME280;26964;50.428;19.218;2023-04-09T03:58:28;1025.8;;;4.1;78.1
41230;BME280;26964;50.428;19.218;2023-04-09T03:59:29;1025.7;;;4.1;78.1
41230;BME280;26964;50.428;19.218;2023-04-09T04:00:27;1025.8;;;4.1;78.1
41230;BME280;26964;50.428;19.218;2023-04-09T04:01:28;1025.9;;;4.1;78.0
41230;BME280;26964;50.428;19.218;2023-04-09T04:02:28;1025.8;;;4.1;78.0
41230;BME280;26964;50.428;19.218;2023-04-09T04:03:28;1025.8;;;4.1;78.0
41230;BME280;26964;50.428;19.218;2023-04-09T04:04:28;1025.9;;;4.1;78.0
41230;BME280;26964;50.428;19.218;2023-04-09T04:05:28;1025.8;;;4.1;78.0
41230;BME280;26964;50.428;19.218;2023-04-09T04:06:27;1025.9;;;4.1;78.0
41230;BME280;26964;50.428;19.218;2023-04-09T04:07:28;1025.8;;;4.0;78.0
41230;BME280;26964;50.428;19.218;2023-04-09T04:08:28;1025.9;;;4.0;78.0
41230;BME280;26964;50.428;19.218;2023-04-09T04:09:28;1025.8;;;4.0;78.1
41230;BME280;26964;50.428;19.218;2023-04-09T04:10:27;1025.9;;;4.0;78.1
41230;BME280;26964;50.428;19.218;2023-04-09T04:11:28;1025.9;;;4.0;78.1
41230;BME280;26964;50.428;19.218;2023-04-09T04:12:29;1025.9;;;4.0;78.1
41230;BME280;26964;50.428;19.218;2023-04-09T04:13:28;1025.8;;;4.0;78.1
41230;BME280;26964;50.428;19.218;2023-04-09T04:14:28;1025.9;;;4.0;78.1
41230;BME280;26964;50.428;19.218;2023-04-09T04:15:29;1025.9;;;4.0;78.1
41230;BME280;26964;50.428;19.218;2023-04-09T04:16:27;1025.8;;;3.9;78.1
41230;BME280;26964;50.428;19.218;2023-04-09T04:17:28;1025.8;;;3.9;78.1
41230;BME280;26964;50.428;19.218;2023-04-09T04:18:28;1025.9;;;3.9;78.1
41230;BME280;26964;50.428;19.218;2023-04-09T04:19:29;1025.9;;;3.9;78.2
41230;BME280;26964;50.428;19.218;2023-04-09T04:20:28;1025.9;;;3.9;78.1
41230;BME280;26964;50.428;19.218;2023-04-09T04:21:28;1025.9;;;3.9;78.1
41230;BME280;26964;50.428;19.218;2023-04-09T04:22:28;1025.9;;;3.9;78.1
41230;BME280;26964;50.428;19.218;2023-04-09T04:23:28;1025.8;;;3.9;78.1
41230;BME280;26964;50.428;19.218;2023-04-09T04:24:27;1025.8;;;3.9;78.2
41230;BME280;26964;50.428;19.218;2023-04-09T04:25:28;1025.8;;;3.9;78.2
41230;BME280;26964;50.428;19.218;2023-04-09T04:26:27;1025.8;;;3.9;78.2
41230;BME280;26964;50.428;19.218;2023-04-09T04:27:28;1025.8;;;3.9;78.2
41230;BME280;26964;50.428;19.218;2023-04-09T04:28:28;1025.7;;;3.9;78.2
41230;BME280;26964;50.428;19.218;2023-04-09T04:29:28;1025.7;;;3.9;78.2
41230;BME280;26964;50.428;19.218;2023-04-09T04:30:28;1025.7;;;3.9;78.2
41230;BME280;26964;50.428;19.218;2023-04-09T04:31:28;1025.7;;;3.9;78.2
41230;BME280;26964;50.428;19.218;2023-04-09T04:32:28;1025.8;;;3.9;78.2
41230;BME280;26964;50.428;19.218;2023-04-09T04:33:28;1025.7;;;3.9;78.2
41230;BME280;26964;50.428;19.218;2023-04-09T04:34:28;1025.8;;;3.9;78.2
41230;BME280;26964;50.428;19.218;2023-04-09T04:35:28;1025.7;;;3.9;78.2
41230;BME280;26964;50.428;19.218;2023-04-09T04:36:28;1025.7;;;3.9;78.2
41230;BME280;26964;50.428;19.218;2023-04-09T04:37:28;1025.7;;;3.9;78.2
41230;BME280;26964;50.428;19.218;2023-04-09T04:38:28;1025.8;;;3.9;78.2
41230;BME280;26964;50.428;19.218;2023-04-09T04:39:29;1025.8;;;3.9;78.2
41230;BME280;26964;50.428;19.218;2023-04-09T04:40:28;1025.8;;;3.9;78.2
41230;BME280;26964;50.428;19.218;2023-04-09T04:41:28;1025.8;;;3.9;78.2
41230;BME280;26964;50.428;19.218;2023-04-09T04:42:28;1025.8;;;3.9;78.3
41230;BME280;26964;50.428;19.218;2023-04-09T04:43:28;1025.9;;;4.0;78.3
41230;BME280;26964;50.428;19.218;2023-04-09T04:44:28;1025.9;;;4.0;78.3
41230;BME280;26964;50.428;19.218;2023-04-09T04:45:28;1025.8;;;4.0;78.3
41230;BME280;26964;50.428;19.218;2023-04-09T04:46:28;1025.9;;;4.0;78.3
41230;BME280;26964;50.428;19.218;2023-04-09T04:47:28;1025.9;;;4.0;78.3
41230;BME280;26964;50.428;19.218;2023-04-09T04:48:28;1025.8;;;4.0;78.3
41230;BME280;26964;50.428;19.218;2023-04-09T04:49:28;1025.9;;;4.0;78.3
41230;BME280;26964;50.428;19.218;2023-04-09T04:50:28;1025.9;;;4.0;78.3
41230;BME280;26964;50.428;19.218;2023-04-09T04:51:29;1025.9;;;4.0;78.3
41230;BME280;26964;50.428;19.218;2023-04-09T04:52:28;1026.0;;;4.0;78.3
41230;BME280;26964;50.428;19.218;2023-04-09T04:53:28;1025.9;;;4.0;78.3
41230;BME280;26964;50.428;19.218;2023-04-09T04:54:28;1025.9;;;4.0;78.3
41230;BME280;26964;50.428;19.218;2023-04-09T04:55:28;1025.9;;;4.0;78.3
41230;BME280;26964;50.428;19.218;2023-04-09T04:56:28;1025.9;;;4.0;78.3
41230;BME280;26964;50.428;19.218;2023-04-09T04:57:28;1025.8;;;4.0;78.3
41230;BME280;26964;50.428;19.218;2023-04-09T04:58:28;1025.9;;;4.0;78.3
41230;BME280;26964;50.428;19.218;2023-04-09T04:59:27;1026.0;;;4.0;78.3
41230;BME280;26964;50.428;19.218;2023-04-09T05:00:28;1025.9;;;4.0;78.3
41230;BME280;26964;50.428;19.218;2023-04-09T05:01:28;1025.9;;;4.0;78.3
41230;BME280;26964;50.428;19.218;2023-04-09T05:02:28;1025.9;;;4.1;78.3
41230;BME280;26964;50.428;19.218;2023-04-09T05:03:28;1025.9;;;4.1;78.3
41230;BME280;26964;50.428;19.218;2023-04-09T05:04:28;1025.9;;;4.1;78.3
41230;BME280;26964;50.428;19.218;2023-04-09T05:05:28;1026.0;;;4.1;78.3
41230;BME280;26964;50.428;19.218;2023-04-09T05:06:27;1025.9;;;4.1;78.3
41230;BME280;26964;50.428;19.218;2023-04-09T05:07:27;1026.1;;;4.1;78.4
41230;BME280;26964;50.428;19.218;2023-04-09T05:08:27;1026.0;;;4.1;78.4
41230;BME280;26964;50.428;19.218;2023-04-09T05:09:28;1026.0;;;4.1;78.4
41230;BME280;26964;50.428;19.218;2023-04-09T05:10:28;1026.0;;;4.1;78.4
41230;BME280;26964;50.428;19.218;2023-04-09T05:11:28;1026.0;;;4.1;78.4
41230;BME280;26964;50.428;19.218;2023-04-09T05:12:31;1026.0;;;4.1;78.4
41230;BME280;26964;50.428;19.218;2023-04-09T05:13:28;1026.0;;;4.2;78.4
41230;BME280;26964;50.428;19.218;2023-04-09T05:14:27;1025.9;;;4.2;78.4
41230;BME280;26964;50.428;19.218;2023-04-09T05:15:28;1026.1;;;4.2;78.4
41230;BME280;26964;50.428;19.218;2023-04-09T05:16:27;1026.1;;;4.2;78.4
41230;BME280;26964;50.428;19.218;2023-04-09T05:17:27;1026.0;;;4.2;78.4
41230;BME280;26964;50.428;19.218;2023-04-09T05:18:28;1026.0;;;4.2;78.4
41230;BME280;26964;50.428;19.218;2023-04-09T05:19:28;1026.1;;;4.2;78.5
41230;BME280;26964;50.428;19.218;2023-04-09T05:20:28;1026.0;;;4.2;78.5
41230;BME280;26964;50.428;19.218;2023-04-09T05:21:28;1026.1;;;4.2;78.5
41230;BME280;26964;50.428;19.218;2023-04-09T05:22:28;1026.0;;;4.2;78.5
41230;BME280;26964;50.428;19.218;2023-04-09T05:23:28;1026.0;;;4.2;78.6
41230;BME280;26964;50.428;19.218;2023-04-09T05:24:28;1026.0;;;4.2;78.5
41230;BME280;26964;50.428;19.218;2023-04-09T05:25:28;1026.0;;;4.3;78.5
41230;BME280;26964;50.428;19.218;2023-04-09T05:26:28;1026.0;;;4.3;78.6
41230;BME280;26964;50.428;19.218;2023-04-09T05:27:27;1026.1;;;4.3;78.6
41230;BME280;26964;50.428;19.218;2023-04-09T05:28:27;1026.1;;;4.3;78.6
41230;BME280;26964;50.428;19.218;2023-04-09T05:29:28;1026.1;;;4.3;78.6
41230;BME280;26964;50.428;19.218;2023-04-09T05:30:28;1026.0;;;4.3;78.5
41230;BME280;26964;50.428;19.218;2023-04-09T05:31:28;1026.2;;;4.3;78.5
41230;BME280;26964;50.428;19.218;2023-04-09T05:32:28;1026.2;;;4.3;78.5
41230;BME280;26964;50.428;19.218;2023-04-09T05:33:28;1026.2;;;4.3;78.6
41230;BME280;26964;50.428;19.218;2023-04-09T05:34:28;1026.1;;;4.3;78.6
41230;BME280;26964;50.428;19.218;2023-04-09T05:35:28;1026.1;;;4.4;78.6
41230;BME280;26964;50.428;19.218;2023-04-09T05:36:28;1026.1;;;4.4;78.6
41230;BME280;26964;50.428;19.218;2023-04-09T05:37:28;1026.2;;;4.4;78.6
41230;BME280;26964;50.428;19.218;2023-04-09T05:38:27;1026.1;;;4.4;78.6
41230;BME280;26964;50.428;19.218;2023-04-09T05:39:27;1026.1;;;4.4;78.6
41230;BME280;26964;50.428;19.218;2023-04-09T05:40:28;1026.2;;;4.4;78.6